This is the latest recevied weather packets stored in our database for station/object IU2EVW-13. If no packets are shown the sender has not sent any weather packets the latest 1 day(s).
| Time | Temp. | Humidity | Pressure | Rain* | Wind** | Luminosity | Snow |
|---|---|---|---|---|---|---|---|
| 1778098928 | 7.22° C | 84% | 1014.5 hPa | - | - | - | - |
| 1778097727 | 7.22° C | 87% | 1016.1 hPa | - | - | - | - |
| 1778091720 | 7.22° C | 84% | 1013.8 hPa | - | - | - | - |
| 1778088116 | 7.78° C | 79% | 1012.8 hPa | - | - | - | - |
| 1778085713 | 7.78° C | 84% | 1012.8 hPa | - | - | - | - |
| 1778082109 | 8.33° C | 88% | 1013.2 hPa | - | - | - | - |
| 1778079706 | 9.44° C | 85% | 1012.5 hPa | - | - | - | - |
| 1778077303 | 10° C | 86% | 1011.7 hPa | - | - | - | - |
| 1778074900 | 11.11° C | 78% | 1011 hPa | - | - | - | - |
| 1778073699 | 11.67° C | 78% | 1011.3 hPa | - | - | - | - |
| 1778067692 | 12.22° C | 81% | 1011.1 hPa | - | - | - | - |
| 1778065289 | 11.67° C | 84% | 1011 hPa | - | - | - | - |
| 1778062886 | 9.44° C | 88% | 1012 hPa | - | - | - | - |
| 1778061685 | 10.56° C | 86% | 1011.5 hPa | - | - | - | - |
| 1778060484 | 10° C | 85% | 1011.2 hPa | - | - | - | - |
| 1778059282 | 10° C | 84% | 1010.9 hPa | - | - | - | - |
| 1778056879 | 10.56° C | 84% | 1010.9 hPa | - | - | - | - |
| 1778055678 | 10° C | 84% | 1011.3 hPa | - | - | - | - |
| 1778053275 | 10° C | 84% | 1011.4 hPa | - | - | - | - |
| 1778052074 | 10.56° C | 77% | 1011.2 hPa | - | - | - | - |
| 1778049671 | 10° C | 83% | 1011.4 hPa | - | - | - | - |
| 1778048470 | 10° C | 81% | 1011.5 hPa | - | - | - | - |
| 1778047269 | 9.44° C | 85% | 1011.6 hPa | - | - | - | - |
| 1778046067 | 9.44° C | 88% | 1011.7 hPa | - | - | - | - |
| 1778044866 | 8.89° C | 88% | 1011.8 hPa | - | - | - | - |
* Rain since midnight (hover to see other rain measurements)
** Current wind speed in m/s (hover to see current wind gust speed)